Kezdőlap
METAR-TAF:

METAR-TAF

Repülőterek :

Kbely

Prága, Csehország

földrajzi szélesség: 50-07-17N, földrajzi hosszúság: 14-32-37E, magasság: 286 m

Jelenlegi meteorológiai megfigyelések

A jelentés 49 perccel ezelõtt készült, 02:00 UTC
Északnyugati szél 3 kt
Hőmérséklet 20°C
Páratartalom 64%
Légköri nyomás 1020 hPa
Látótávolság 10 km, vagy több
felhőtlen 1500 m magasságban, és nincs gomolyfelhõ

METAR: LKKB 210200Z 31003KT CAVOK 20/13 Q1020

Idő: 04:49 (02:49 UTC)

Előrejelzés

A jelentés 3 órával és 49 perccel ezelõtt készült, 23:00 UTC
Az előrejelzés 21-én 00 óra UTC és 22-én 00 óra UTC között érvényes
Északi szél 6 kt
Látótávolság 10 km, vagy több
felhőtlen 1500 m magasságban, és nincs gomolyfelhõ
21-én 10 óra UTC és 21-én 18 óra UTC között ideiglenes
Észak-északkeleti szél 8 kt

TAF: LKKB 202300Z 2100/2200 35006KT CAVOK TEMPO 2110/2118 02008KT

Meteorológiai megfigyelések és előrejelzések több, mint 4000 repülőtéren (METAR és TAF jelentéseket).

A térképen piros és sárga pontok jelzik az elérhető meteorológiai állomásokat.

Mozgassa az egeret a pont fölött, hogy megjelenjen az állomás neve.

Azután kattintson az időjárási megfigyelések és előrejelzések megtekintéséhez.

A térkép megváltoztatása: kattintson a fekete keresztel jelölt zöld gombra ráközelítéshez, a vonallal jelölt zöld gombra távolításhoz, vagy a zöld nyilakra a szomszédos térképek eléréséhez.


METAR-TAF: